Kanaskat, Washington
Current Conditions -  °F | °C
As of 2:53 PM on Thursday 18 Dec 2014 (Local Time) from KRNT Reporting Station
Light Rain Light Rain  
Wind Chill:   Ceiling: 6000
Heat Index:   Visibility: 8mi
Dew Point:   Wind: 3mph
Humidity: 86%   Direction: 140°SE
Pressure: 29.82"   Gusts: NA
Location:  47.3777°N, 121.913°W
Report Text: KRNT 182253Z 14003KT 8SM -RA FEW046 BKN060 OVC080 09/07 A2982 RMK AO2 RAB01 SLP102 P0000 T00940072
Loading
Personal Weather Stations






























Interactive Weather Map New forecast layout! Learn more

10-Day Weather Forecast

Advertisements
Track Severe Weather on mobile